• Join FlightAware (Why Join?)
  • Login
  • US Flag 
05:44PM EST


 

Airport Tracker/Info


-or-


 

Live Flight TrackerFlight Track Log ✈ VLC140 ✈ 14-Nov-2013 ✈ CYYC - KCEF

Flight Track Log - Related Links

Times and Time Zones

All times are in EST time to prevent confusion due to time zone crossing. See the VLC140 flight status page for this flight to view local times or setup timezone preferences in your user account.

Time Position Orientation Groundspeed Altitude Reporting Facility
EST Latitude Longitude Course Direction KTS MPH feet Rate Location/Type
12:04PM 51.0500 -114.0500 122° Southeast 200 230 6,600  Level Edmonton Center
12:05PM 50.9833 -114.0333 171° South 250 288 9,600 3,300 Climbing Edmonton Center
12:06PM 50.9000 -114.0000 166° South 290 334 13,300 3,600 Climbing Edmonton Center
12:07PM 50.8833 -113.8833 103° East 320 368 16,900 3,360 Climbing Edmonton Center
12:08PM 50.8667 -113.7167 99° East 320 368 20,100 2,880 Climbing Edmonton Center
12:09PM 50.8833 -113.5833 79° East 330 380 22,700 2,700 Climbing Edmonton Center
12:10PM 51.0886 -112.6849 122° Southeast  Level Estimated
12:10PM 50.8833 -113.4333 90° East 350 403 25,600  Level Edmonton Center
12:11PM 50.8833 -113.2667 90° East 360 414 27,800 2,340 Climbing Edmonton Center
12:12PM 50.8667 -113.1000 99° East 370 426 30,300 2,100 Climbing Edmonton Center
12:13PM 50.8667 -112.9333 90° East 380 437 32,000 1,800 Climbing Edmonton Center
12:14PM 50.8667 -112.7833 90° East 390 449 34,000 1,620 Climbing Edmonton Center
12:15PM 50.8500 -112.5833 97° East 380 437 35,300 1,320 Climbing Edmonton Center
12:16PM 50.8500 -112.4333 90° East 390 449 36,700 1,200 Climbing Edmonton Center
12:17PM 50.8500 -112.2333 90° East 380 437 37,800 1,020 Climbing Edmonton Center
12:18PM 50.8333 -112.0833 100° East 380 437 38,800 960 Climbing Edmonton Center
12:19PM 50.8333 -111.9167 90° East 390 449 39,800 960 Climbing Edmonton Center
12:20PM 50.8500 -111.7333 82° East 380 437 40,800 600 Climbing Edmonton Center
12:21PM 50.8333 -111.5667 99° East 390 449 41,000 60 Climbing Edmonton Center
12:22PM 50.8333 -111.3833 90° East 400 460 41,000  Level Edmonton Center
12:23PM 50.8167 -111.2167 99° East 410 472 41,000  Level Edmonton Center
12:24PM 50.8167 -111.0333 90° East 430 495 41,000  Level Edmonton Center
12:25PM 50.8167 -110.8167 90° East 440 506 41,000  Level Edmonton Center
12:26PM 50.8000 -110.6333 98° East 440 506 41,000  Level Edmonton Center
12:27PM 50.8000 -110.4167 90° East 450 518 41,000  Level Edmonton Center
12:28PM 50.7833 -110.2167 97° East 450 518 41,000  Level Edmonton Center
12:29PM 50.7833 -110.0333 90° East 450 518 41,000  Level Edmonton Center
12:30PM 50.7667 -109.8167 97° East 450 518 41,000  Level Edmonton Center
12:31PM 50.7500 -109.6333 98° East 450 518 41,000  Level Edmonton Center
12:32PM 50.7500 -109.4167 90° East 450 518 41,000  Level Edmonton Center
12:33PM 50.7333 -109.2333 98° East 450 518 41,000  Level Edmonton Center
12:34PM 50.7167 -109.0167 97° East 450 518 41,000  Level Edmonton Center
12:35PM 50.7167 -108.8500 90° East 460 529 41,000  Level Winnipeg Center
12:36PM 50.7167 -108.6500 90° East 460 529 41,000  Level Winnipeg Center
12:37PM 50.7000 -108.4667 98° East 460 529 41,000  Level Winnipeg Center
12:38PM 50.7000 -108.2833 90° East 460 529 41,000  Level Winnipeg Center
12:39PM 50.6833 -108.0333 96° East 460 529 41,000  Level Winnipeg Center
12:40PM 50.6667 -107.8500 98° East 460 529 41,000  Level Winnipeg Center
12:41PM 50.6500 -107.6500 97° East 470 541 41,000  Level Winnipeg Center
12:42PM 50.6500 -107.4333 90° East 460 529 41,000  Level Winnipeg Center
12:43PM 50.6333 -107.2500 98° East 470 541 41,000  Level Winnipeg Center
12:44PM 50.6167 -107.0333 97° East 460 529 41,000  Level Winnipeg Center
12:45PM 50.6000 -106.8500 98° East 470 541 41,000  Level Winnipeg Center
12:46PM 50.5833 -106.6333 97° East 460 529 41,000  Level Winnipeg Center
12:47PM 50.5667 -106.4167 97° East 470 541 41,000  Level Winnipeg Center
12:48PM 50.5667 -106.2333 90° East 470 541 41,000  Level Winnipeg Center
12:49PM 50.5500 -106.0333 97° East 470 541 41,000  Level Winnipeg Center
12:50PM 50.5333 -105.8167 97° East 470 541 41,000  Level Winnipeg Center
12:51PM 50.5000 -105.6333 106° East 470 541 41,000  Level Winnipeg Center
12:52PM 50.4833 -105.4167 97° East 470 541 41,000  Level Winnipeg Center
12:53PM 50.4667 -105.2000 97° East 470 541 41,000  Level Winnipeg Center
12:54PM 50.4500 -105.0167 98° East 470 541 41,000  Level Winnipeg Center
12:55PM 50.4333 -104.8000 97° East 470 541 41,000  Level Winnipeg Center
12:56PM 50.4167 -104.5833 97° East 480 552 41,000  Level Winnipeg Center
12:57PM 50.4000 -104.4000 98° East 470 541 41,000  Level Winnipeg Center
12:58PM 50.3667 -104.1833 103° East 480 552 41,000  Level Winnipeg Center
12:59PM 50.3500 -103.9667 97° East 480 552 41,000  Level Winnipeg Center
01:00PM 50.3333 -103.7667 97° East 480 552 41,000  Level Winnipeg Center
01:01PM 50.3333 -103.5833 90° East 470 541 41,000  Level Winnipeg Center
01:02PM 50.3000 -103.3667 103° East 480 552 41,000  Level Winnipeg Center
01:03PM 50.2833 -103.1500 97° East 480 552 41,000  Level Winnipeg Center
01:04PM 50.2667 -102.9667 98° East 480 552 41,000  Level Winnipeg Center
01:05PM 50.2333 -102.7500 103° East 470 541 41,000  Level Winnipeg Center
01:06PM 50.2167 -102.5667 98° East 470 541 41,000  Level Winnipeg Center
01:07PM 50.1833 -102.3333 102° East 480 552 41,000  Level Winnipeg Center
01:08PM 50.1667 -102.1333 97° East 480 552 41,000  Level Winnipeg Center
01:09PM 50.1333 -101.9333 105° East 480 552 41,000  Level Winnipeg Center
01:10PM 50.1167 -101.7167 97° East 480 552 41,000  Level Winnipeg Center
01:11PM 50.0833 -101.5333 106° East 480 552 41,000  Level Winnipeg Center
01:12PM 50.0667 -101.3167 97° East 480 552 41,000  Level Winnipeg Center
01:13PM 50.0333 -101.1333 106° East 480 552 41,000  Level Winnipeg Center
01:14PM 50.0167 -100.9000 96° East 480 552 41,000  Level Winnipeg Center
01:15PM 49.9833 -100.7167 106° East 480 552 41,000  Level Winnipeg Center
01:16PM 49.9667 -100.5000 97° East 480 552 41,000  Level Winnipeg Center
01:17PM 49.9333 -100.3000 104° East 480 552 41,000  Level Winnipeg Center
01:18PM 49.9000 -100.0833 103° East 480 552 41,000  Level Winnipeg Center
01:19PM 49.9000 -99.9000 90° East 480 552 41,000  Level Winnipeg Center
01:20PM 49.8667 -99.6833 103° East 480 552 41,000  Level Winnipeg Center
01:21PM 49.8333 -99.4833 104° East 490 564 41,000  Level Winnipeg Center
01:22PM 49.8167 -99.2667 97° East 480 552 41,000  Level Winnipeg Center
01:23PM 49.8000 -99.0667 97° East 480 552 41,000  Level Winnipeg Center
01:24PM 49.7667 -98.8500 103° East 490 564 41,000  Level Winnipeg Center
01:25PM 49.7500 -98.6500 97° East 480 552 41,000  Level Winnipeg Center
01:26PM 49.7167 -98.4333 103° East 490 564 41,000  Level Winnipeg Center
01:27PM 49.6833 -98.2333 104° East 480 552 41,000 720 Level Winnipeg Center
01:28PM 49.6667 -98.0500 98° East 470 541 42,500 1,500 Climbing Winnipeg Center
01:29PM 49.6333 -97.8667 106° East 440 506 44,100 1,080 Climbing Winnipeg Center
01:30PM 49.6333 -97.6833 90° East 430 495 44,700 420 Climbing Winnipeg Center
01:31PM 49.6000 -97.5000 106° East 430 495 45,000 120 Climbing Winnipeg Center
01:32PM 49.5833 -97.3333 99° East 440 506 45,000  Level Winnipeg Center
01:33PM 49.5500 -97.1167 103° East 450 518 45,000  Level Winnipeg Center
01:34PM 49.5333 -96.9333 98° East 460 529 45,000  Level Winnipeg Center
01:35PM 49.5000 -96.7333 104° East 470 541 45,000  Level Winnipeg Center
01:36PM 49.4833 -96.5333 97° East 470 541 45,000  Level Winnipeg Center
01:37PM 49.4500 -96.3167 103° East 470 541 45,000  Level Winnipeg Center
01:38PM 49.4167 -96.1500 107° East 470 541 45,000  Level Winnipeg Center
01:39PM 49.3833 -95.9333 103° East 470 541 45,000  Level Winnipeg Center
01:40PM 49.3500 -95.7333 104° East 470 541 45,000  Level Winnipeg Center
01:41PM 49.3333 -95.5500 98° East 470 541 45,000  Level Winnipeg Center
01:42PM 49.3000 -95.3500 104° East 470 541 45,000  Level Winnipeg Center
01:43PM 49.2833 -95.1500 97° East 480 552 45,000  Level Winnipeg Center
01:44PM 49.2500 -94.9500 104° East 480 552 45,000  Level Winnipeg Center
01:45PM 49.2000 -94.7667 113° Southeast 480 552 45,000  Level Winnipeg Center
01:46PM 49.1833 -94.5667 97° East 480 552 45,000  Level Winnipeg Center
01:47PM 49.1500 -94.3500 103° East 480 552 45,000  Level Winnipeg Center
01:48PM 49.1000 -94.1500 111° Southeast 480 552 45,000  Level Winnipeg Center
01:49PM 49.0833 -93.9500 97° East 480 552 45,000  Level Winnipeg Center
01:50PM 49.0500 -93.7833 107° East 480 552 45,000  Level Winnipeg Center
01:51PM 49.0000 -93.5500 108° East 480 552 45,000  Level Winnipeg Center
01:52PM 48.9833 -93.3667 98° East 470 541 45,000  Level Winnipeg Center
01:53PM 48.9500 -93.1667 104° East 480 552 45,000  Level Winnipeg Center
01:54PM 48.9167 -92.9667 104° East 480 552 45,000  Level Winnipeg Center
01:55PM 48.8833 -92.8000 107° East 470 541 45,000  Level Winnipeg Center
01:56PM 48.8500 -92.6000 104° East 470 541 45,000  Level Winnipeg Center
01:57PM 48.8167 -92.4000 104° East 470 541 45,000  Level Winnipeg Center
01:58PM 48.7667 -92.2000 111° Southeast 480 552 45,000  Level Winnipeg Center
01:59PM 48.7500 -92.0167 98° East 480 552 45,000  Level Winnipeg Center
02:00PM 48.7000 -91.8000 109° East 480 552 45,000  Level Winnipeg Center
02:01PM 48.6667 -91.6167 105° East 480 552 45,000  Level Winnipeg Center
02:02PM 48.6167 -91.4167 111° Southeast 480 552 45,000  Level Winnipeg Center
02:03PM 48.5833 -91.2333 105° East 480 552 45,000  Level Winnipeg Center
02:04PM 48.5333 -91.0500 112° Southeast 480 552 45,000  Level Winnipeg Center
02:05PM 48.4833 -90.8667 112° Southeast 480 552 45,000  Level Winnipeg Center
02:06PM 48.4500 -90.6667 104° East 480 552 45,000  Level Winnipeg Center
02:07PM 48.4000 -90.4833 112° Southeast 470 541 45,000  Level Winnipeg Center
02:08PM 48.3500 -90.3000 112° Southeast 470 541 45,000  Level Winnipeg Center
02:09PM 48.3167 -90.1000 104° East 470 541 45,000  Level Winnipeg Center
02:10PM 48.2667 -89.9333 114° Southeast 470 541 45,000  Level Winnipeg Center
02:11PM 48.2167 -89.7667 114° Southeast 470 541 45,000  Level Winnipeg Center
02:12PM 48.1833 -89.5667 104° East 480 552 45,000  Level Winnipeg Center
02:13PM 48.1333 -89.3667 110° East 480 552 45,000  Level Winnipeg Center
02:14PM 48.0833 -89.1833 112° Southeast 480 552 45,000  Level Winnipeg Center
02:15PM 48.0333 -89.0167 114° Southeast 480 552 45,000  Level Winnipeg Center
02:16PM 47.9667 -88.8000 115° Southeast 480 552 45,000  Level Winnipeg Center
02:17PM 47.9167 -88.6333 114° Southeast 480 552 45,000  Level Winnipeg Center
02:18PM 47.8833 -88.4333 104° East 490 564 45,000  Level Winnipeg Center
02:19PM 47.8333 -88.2500 112° Southeast 490 564 45,000  Level Winnipeg Center
02:20PM 47.7833 -88.0833 114° Southeast 490 564 45,000  Level Winnipeg Center
02:21PM 47.7333 -87.8667 109° East 490 564 45,000  Level Winnipeg Center
02:22PM 47.6833 -87.7000 114° Southeast 490 564 45,000  Level Winnipeg Center
02:23PM 47.6333 -87.5000 110° East 490 564 45,000  Level Winnipeg Center
02:24PM 47.5833 -87.3167 112° Southeast 490 564 45,000  Level Winnipeg Center
02:25PM 47.5333 -87.1333 112° Southeast 490 564 45,000  Level Winnipeg Center
02:26PM 47.4667 -86.9333 116° Southeast 480 552 45,000  Level Winnipeg Center
02:27PM 47.4167 -86.7500 112° Southeast 480 552 45,000  Level Winnipeg Center
02:28PM 47.3667 -86.5833 114° Southeast 480 552 45,000  Level Winnipeg Center
02:29PM 47.3500 -86.5000 106° East 480 552 45,000  Level Toronto Center
02:30PM 47.2833 -86.3500 123° Southeast 480 552 45,000  Level Toronto Center
02:31PM 47.2333 -86.1333 109° East 480 552 45,000  Level Toronto Center
02:32PM 47.2000 -85.9667 106° East 480 552 45,000  Level Toronto Center
02:33PM 47.1333 -85.7833 118° Southeast 480 552 45,000  Level Toronto Center
02:34PM 47.0833 -85.6000 112° Southeast 480 552 45,000  Level Toronto Center
02:35PM 47.0167 -85.4333 120° Southeast 480 552 45,000  Level Toronto Center
02:36PM 46.9667 -85.2500 112° Southeast 480 552 45,000  Level Toronto Center
02:37PM 46.9167 -85.0833 114° Southeast 480 552 45,000  Level Toronto Center
02:38PM 46.8667 -84.9000 112° Southeast 480 552 45,000  Level Toronto Center
02:39PM 46.8000 -84.7167 118° Southeast 480 552 45,000  Level Toronto Center
02:40PM 46.7667 -84.5500 106° East 480 552 45,000  Level Toronto Center
02:41PM 46.7000 -84.3500 116° Southeast 480 552 45,000  Level Toronto Center
02:42PM 46.6500 -84.1667 112° Southeast 480 552 45,000  Level Toronto Center
02:43PM 46.5833 -84.0000 120° Southeast 490 564 45,000  Level Toronto Center
02:44PM 46.5167 -83.8167 118° Southeast 490 564 45,000  Level Toronto Center
02:45PM 46.4833 -83.6500 106° East 490 564 45,000  Level Toronto Center
02:46PM 46.4167 -83.4833 120° Southeast 490 564 45,000  Level Toronto Center
02:47PM 46.3500 -83.3000 118° Southeast 490 564 45,000  Level Toronto Center
02:48PM 46.3000 -83.1000 110° East 490 564 45,000  Level Toronto Center
02:49PM 46.2333 -82.9333 120° Southeast 490 564 45,000  Level Toronto Center
02:50PM 46.1667 -82.7667 120° Southeast 490 564 45,000  Level Toronto Center
02:51PM 46.1333 -82.5833 105° East 490 564 45,000  Level Toronto Center
02:52PM 46.0667 -82.4167 120° Southeast 480 552 45,000  Level Toronto Center
02:53PM 46.0000 -82.2167 116° Southeast 480 552 45,000  Level Toronto Center
02:54PM 45.9500 -82.0833 118° Southeast 480 552 45,000  Level Toronto Center
02:55PM 45.9000 -81.8833 110° East 480 552 45,000  Level Toronto Center
02:56PM 45.8333 -81.7167 120° Southeast 480 552 45,000  Level Toronto Center
02:57PM 45.7667 -81.5500 120° Southeast 480 552 45,000  Level Toronto Center
02:58PM 45.7000 -81.3667 117° Southeast 480 552 45,000  Level Toronto Center
02:59PM 45.6500 -81.2000 113° Southeast 480 552 45,000  Level Toronto Center
03:00PM 45.5833 -81.0333 120° Southeast 490 564 45,000  Level Toronto Center
03:01PM 45.5333 -80.8667 113° Southeast 480 552 45,000  Level Toronto Center
03:02PM 45.4667 -80.6833 117° Southeast 490 564 45,000  Level Toronto Center
03:03PM 45.4167 -80.5167 113° Southeast 480 552 45,000  Level Toronto Center
03:04PM 45.3500 -80.3500 120° Southeast 480 552 45,000  Level Toronto Center
03:05PM 45.2833 -80.1833 120° Southeast 480 552 45,000  Level Toronto Center
03:06PM 45.2167 -80.0167 120° Southeast 490 564 45,000  Level Toronto Center
03:07PM 45.1500 -79.8500 120° Southeast 490 564 45,000  Level Toronto Center
03:08PM 45.1000 -79.6833 113° Southeast 490 564 45,000  Level Toronto Center
03:09PM 45.0333 -79.4833 115° Southeast 500 575 45,000  Level Toronto Center
03:10PM 44.9667 -79.3333 122° Southeast 490 564 45,000  Level Toronto Center
03:11PM 44.9000 -79.1333 115° Southeast 500 575 45,000  Level Toronto Center
03:12PM 44.8333 -78.9667 119° Southeast 490 564 45,000  Level Toronto Center
03:13PM 44.7667 -78.8167 122° Southeast 500 575 45,000  Level Toronto Center
03:14PM 44.7000 -78.6500 119° Southeast 490 564 45,000  Level Toronto Center
03:15PM 44.6500 -78.4833 113° Southeast 490 564 45,000  Level Toronto Center
03:16PM 44.5500 -78.3000 127° Southeast 490 564 45,000  Level Toronto Center
03:17PM 44.5000 -78.1333 113° Southeast 490 564 45,000  Level Toronto Center
03:18PM 44.4333 -77.9667 119° Southeast 500 575 45,000  Level Toronto Center
03:19PM 44.3667 -77.7833 117° Southeast 500 575 45,000  Level Toronto Center
03:20PM 44.3000 -77.6333 122° Southeast 500 575 45,000  Level Toronto Center
03:21PM 44.2333 -77.4500 117° Southeast 490 564 45,000  Level Toronto Center
03:22PM 44.1667 -77.2833 119° Southeast 490 564 45,000  Level Toronto Center
03:23PM 44.1000 -77.1000 117° Southeast 490 564 45,000  Level Toronto Center
03:24PM 44.0500 -76.9333 113° Southeast 490 564 45,000  Level Toronto Center
03:25PM 43.9833 -76.7833 122° Southeast 480 552 45,000  Level Toronto Center
03:26PM 43.9000 -76.6167 125° Southeast 480 552 45,000  Level Toronto Center
03:27PM 43.8992 -76.5939 93° East 478 550 45,000  Level Boston Center
03:28PM 43.8336 -76.4381 120° Southeast 470 541 45,000  Level Boston Center
03:29PM 43.7664 -76.2803 120° Southeast 475 547 45,000 -600 Level Boston Center
03:30PM 43.6850 -76.0914 121° Southeast 478 550 43,800 -1,800 Descending Boston Center
03:31PM 43.6175 -75.9353 121° Southeast 477 549 41,300 -2,460 Descending Boston Center
03:32PM 43.5514 -75.7847 121° Southeast 466 536 38,900 -2,400 Descending Boston Center
03:33PM 43.4875 -75.6358 121° Southeast 458 527 36,400 -2,460 Descending Boston Center
03:34PM 43.4197 -75.4814 121° Southeast 468 539 33,900 -2,460 Descending Boston Center
03:35PM 43.3517 -75.3264 121° Southeast 479 551 31,500 -2,580 Descending Boston Center
03:36PM 43.2744 -75.1553 122° Southeast 477 549 28,700 -2,580 Descending Boston Center
03:37PM 43.2067 -75.0028 121° Southeast 473 544 26,200 -2,460 Descending Boston Center
03:38PM 43.1372 -74.8514 122° Southeast 471 542 23,700 -2,460 Descending Boston Center
03:39PM 43.0733 -74.7039 121° Southeast 455 524 21,300 -2,520 Descending Boston Center
03:40PM 42.9994 -74.5414 122° Southeast 443 510 18,700 -1,620 Descending Boston Center
03:41PM 42.9369 -74.4056 122° Southeast 423 487 18,000 -360 Descending Boston Center
03:42PM 42.8744 -74.2686 122° Southeast 425 489 18,000  Level Boston Center
03:43PM 42.8064 -74.1197 122° Southeast 431 496 18,000  Level Boston Center
03:44PM 42.7425 -73.9817 122° Southeast 433 498 18,000  Level Boston Center
03:45PM 42.6811 -73.8489 122° Southeast 424 488 18,000  Level Boston Center
03:46PM 42.6153 -73.7067 122° Southeast 418 481 18,000  Level Boston Center
03:47PM 42.5517 -73.5717 123° Southeast 427 491 18,000 -900 Level Boston Center
03:48PM 42.4811 -73.4289 124° Southeast 423 487 16,200 -1,920 Descending Boston Center
03:49PM 42.4058 -73.3258 135° Southeast 388 447 14,200 -1,920 Descending Boston Center
03:50PM 42.3592 -73.2625 135° Southeast 390 449 13,200 -2,100 Descending Boston Center
03:50PM 42.3267 -73.2133 132° Southeast 397 457 12,100 -1,920 Descending Boston Center
03:51PM 42.2956 -73.1719 135° Southeast 392 451 11,500 -1,080 Descending Boston Center
03:51PM 42.2519 -73.1083 133° Southeast 389 448 11,000 -480 Descending Boston Center
03:52PM 42.2164 -73.0614 136° Southeast 387 445 11,000 -240 Level Boston Center
03:52PM 42.2117 -72.9839 95° East 391 450 10,800 -900 Descending Boston Center
03:53PM 42.2164 -72.9219 84° East 366 421 10,100 -1,680 Descending Boston Center
03:54PM 42.2297 -72.8019 81° East 303 349 8,400 -2,160 Descending Boston Center
03:55PM 42.2533 -72.6944 73° East 286 329 5,800 -2,460 Descending Boston Center
03:56PM 42.2769 -72.5983 72° East 278 320 3,400 -1,500 Descending Boston Center
03:57PM 42.2881 -72.5094 80° East 192 221 2,600 -720 Descending Boston Center
03:58PM 42.2528 -72.4794 148° Southeast 139 160 1,900 -840 Descending Boston Center
03:59PM 42.2289 -72.5028 216° Southwest 98 113 1,100 -900 Descending Boston Center